• Join FlightAware (Why Join?)
  • Login
  • US Flag 
 
05:13AM EST


 

Airport Tracker/Info


-or-


 

Live Flight TrackerFlight Track Log ✈ EJA941 ✈ 13-Jan-2014 ✈ KPBI - KCID

Flight Track Log - Related Links

Times and Time Zones

All times are in EST time to prevent confusion due to time zone crossing. See the EJA941 flight status page for this flight to view local times or setup timezone preferences in your user account.

Time Position Orientation Groundspeed Altitude Reporting Facility
EST Latitude Longitude Course Direction KTS MPH feet Rate Location/Type
02:24PM 26.7089 -79.9983 356° North 208 239 4,500  Level Miami Center
02:25PM 26.7942 -80.0053 356° North 213 245 8,900 3,480 Climbing Miami Center
02:26PM 26.8281 -80.0878 295° West 221 254 11,500 2,460 Climbing Miami Center
02:27PM 26.8403 -80.1858 278° West 309 356 13,900 1,200 Climbing Miami Center
02:28PM 26.8836 -80.2967 294° West 374 430 14,000 540 Climbing Miami Center
02:29PM 26.9817 -80.3928 319° Northwest 391 450 15,000 1,200 Climbing Miami Center
02:30PM 27.0781 -80.4608 328° Northwest 397 457 16,400 1,380 Climbing Miami Center
02:31PM 27.1744 -80.5269 329° Northwest 408 470 17,800 1,380 Climbing Miami Center
02:32PM 27.2689 -80.5953 327° Northwest 408 470 19,200 1,440 Climbing Miami Center
02:33PM 27.3675 -80.6617 329° Northwest 408 470 20,700 1,440 Climbing Miami Center
02:34PM 27.4658 -80.7306 328° Northwest 408 470 22,100 1,380 Climbing Miami Center
02:35PM 27.5642 -80.7994 328° Northwest 413 475 23,500 1,320 Climbing Miami Center
02:36PM 27.6708 -80.8686 330° Northwest 423 487 24,800 1,320 Climbing Miami Center
02:37PM 27.7731 -80.9428 327° Northwest 428 493 26,200 1,380 Climbing Miami Center
02:38PM 27.8753 -81.0144 328° Northwest 428 493 27,600 1,380 Climbing Miami Center
02:39PM 27.9817 -81.0864 329° Northwest 428 493 29,000 1,440 Climbing Miami Center
02:40PM 28.0797 -81.1631 325° Northwest 434 499 30,500 1,380 Climbing Miami Center
02:41PM 28.1683 -81.2631 315° West 441 507 31,800 1,260 Climbing Miami Center
02:42PM 28.2408 -81.3531 312° West 430 495 33,100 1,440 Climbing Miami Center
02:43PM 28.3289 -81.4672 311° West 437 503 34,700 1,620 Climbing Miami Center
02:44PM 28.4111 -81.5697 312° West 437 503 36,400 1,680 Climbing Miami Center
02:45PM 28.5222 -81.7089 312° West 440 506 38,800 1,500 Climbing Jacksonville Center
02:46PM 28.6003 -81.8072 312° West 430 495 40,000 600 Climbing Jacksonville Center
02:47PM 28.6761 -81.9081 311° West 430 495 40,000  Level Jacksonville Center
02:48PM 28.7625 -82.0092 314° West 430 495 40,000  Level Jacksonville Center
02:49PM 28.8467 -82.1222 310° West 448 516 40,000 60 Level Jacksonville Center
02:50PM 28.9308 -82.2283 312° West 453 521 40,200 480 Climbing Jacksonville Center
02:51PM 29.0106 -82.3347 311° West 453 521 41,000 720 Climbing Jacksonville Center
02:52PM 29.0944 -82.4411 312° West 453 521 41,700 660 Climbing Jacksonville Center
02:53PM 29.1764 -82.5453 312° West 453 521 42,400 600 Climbing Jacksonville Center
02:54PM 29.2581 -82.6522 311° West 453 521 43,000 300 Climbing Jacksonville Center
02:55PM 29.3394 -82.7592 311° West 453 521 43,000  Level Jacksonville Center
02:56PM 29.4211 -82.8664 311° West 453 521 43,000  Level Jacksonville Center
02:57PM 29.5003 -82.9714 311° West 466 536 43,000  Level Jacksonville Center
02:58PM 29.5836 -83.0789 312° West 471 542 43,000  Level Jacksonville Center
02:59PM 29.6817 -83.1794 318° Northwest 471 542 43,000  Level Jacksonville Center
03:00PM 29.7836 -83.2756 321° Northwest 469 540 43,000  Level Jacksonville Center
03:01PM 29.8878 -83.3644 324° Northwest 474 545 43,000  Level Jacksonville Center
03:02PM 29.9917 -83.4539 323° Northwest 474 545 43,000  Level Jacksonville Center
03:03PM 30.0958 -83.5456 323° Northwest 469 540 43,000  Level Jacksonville Center
03:04PM 30.1997 -83.6400 322° Northwest 469 540 43,000  Level Jacksonville Center
03:05PM 30.3033 -83.7300 323° Northwest 469 540 43,000  Level Jacksonville Center
03:06PM 30.4072 -83.8222 323° Northwest 469 540 43,000  Level Jacksonville Center
03:07PM 30.5108 -83.9172 322° Northwest 469 540 43,000  Level Jacksonville Center
03:08PM 30.6206 -84.0200 321° Northwest 464 534 43,000  Level Jacksonville Center
03:09PM 30.7261 -84.1225 320° Northwest 475 547 43,000  Level Jacksonville Center
03:10PM 30.8236 -84.2036 324° Northwest 468 539 43,000  Level Jacksonville Center
03:11PM 30.9269 -84.2997 321° Northwest 468 539 43,000  Level Jacksonville Center
03:12PM 31.0094 -84.3761 322° Northwest 468 539 43,000  Level Jacksonville Center
03:13PM 31.1211 -84.4772 322° Northwest 468 539 43,000  Level Jacksonville Center
03:14PM 31.2222 -84.5736 321° Northwest 468 539 43,000  Level Jacksonville Center
03:15PM 31.3272 -84.6681 322° Northwest 468 539 43,000  Level Jacksonville Center
03:18PM 31.5911 -84.9117 322° Northwest 468 539 43,000  Level Atlanta Center
03:19PM 31.6928 -85.0053 322° Northwest 468 539 43,000  Level Atlanta Center
03:20PM 31.7964 -85.1019 322° Northwest 468 539 43,000  Level Atlanta Center
03:21PM 31.8875 -85.1836 323° Northwest 468 539 43,000  Level Atlanta Center
03:22PM 31.9908 -85.2803 322° Northwest 468 539 43,000  Level Atlanta Center
03:23PM 32.0922 -85.3750 322° Northwest 468 539 43,000  Level Atlanta Center
03:24PM 32.1975 -85.4747 321° Northwest 473 544 43,000  Level Atlanta Center
03:25PM 32.3006 -85.5722 321° Northwest 473 544 43,000  Level Atlanta Center
03:26PM 32.4142 -85.6800 321° Northwest 474 545 43,000  Level Atlanta Center
03:27PM 32.5172 -85.7781 321° Northwest 474 545 43,000  Level Atlanta Center
03:28PM 32.6222 -85.8761 322° Northwest 474 545 43,000  Level Atlanta Center
03:29PM 32.7231 -85.9722 321° Northwest 474 545 43,000  Level Atlanta Center
03:30PM 32.8256 -86.0733 320° Northwest 469 540 43,000  Level Atlanta Center
03:31PM 32.9264 -86.1719 321° Northwest 474 545 43,000  Level Atlanta Center
03:32PM 33.0267 -86.2711 320° Northwest 469 540 43,000  Level Atlanta Center
03:33PM 33.1314 -86.3656 323° Northwest 469 540 43,000  Level Atlanta Center
03:34PM 33.2319 -86.4650 320° Northwest 469 540 43,000  Level Atlanta Center
03:35PM 33.3197 -86.5569 319° Northwest 464 534 43,000  Level Atlanta Center
03:36PM 33.4219 -86.6572 321° Northwest 469 540 43,000  Level Atlanta Center
03:37PM 33.5242 -86.7550 321° Northwest 469 540 43,000  Level Atlanta Center
03:38PM 33.6264 -86.8581 320° Northwest 469 540 43,000  Level Atlanta Center
03:39PM 33.7306 -86.9486 324° Northwest 469 540 43,000  Level Atlanta Center
03:40PM 33.9317 -87.1056 327° Northwest 480 552 43,000  Level Memphis Center
03:41PM 34.0431 -87.1939 327° Northwest 480 552 43,000  Level Memphis Center
03:42PM 34.1489 -87.2778 327° Northwest 479 551 43,000  Level Memphis Center
03:43PM 34.2803 -87.3825 327° Northwest 479 551 43,000  Level Memphis Center
03:44PM 34.3917 -87.4728 326° Northwest 478 550 43,000  Level Memphis Center
03:45PM 34.5050 -87.5614 327° Northwest 479 551 43,000  Level Memphis Center
03:46PM 34.6128 -87.6478 327° Northwest 482 555 43,000  Level Memphis Center
03:47PM 34.7242 -87.7375 327° Northwest 482 555 43,000  Level Memphis Center
03:49PM 34.8339 -87.8269 326° Northwest 478 550 43,000  Level Memphis Center
03:50PM 34.9664 -87.9350 326° Northwest 478 550 43,000  Level Memphis Center
03:51PM 35.0778 -88.0253 326° Northwest 481 554 43,000  Level Memphis Center
03:52PM 35.1894 -88.1178 326° Northwest 484 557 43,000  Level Memphis Center
03:53PM 35.3022 -88.2103 326° Northwest 487 560 43,000  Level Memphis Center
03:54PM 35.4175 -88.3042 326° Northwest 485 558 43,000  Level Memphis Center
03:55PM 35.5319 -88.3944 327° Northwest 487 560 43,000  Level Memphis Center
03:56PM 35.6825 -88.4844 334° Northwest 497 572 43,000  Level Memphis Center
03:57PM 35.8083 -88.5603 334° Northwest 502 578 43,000  Level Memphis Center
03:58PM 35.9336 -88.6347 334° Northwest 501 577 43,000  Level Memphis Center
03:59PM 36.0572 -88.7092 334° Northwest 498 573 43,000  Level Memphis Center
04:00PM 36.2042 -88.7986 334° Northwest 494 568 43,000  Level Memphis Center
04:01PM 36.3261 -88.8733 334° Northwest 493 567 43,000  Level Memphis Center
04:02PM 36.4483 -88.9472 334° Northwest 493 567 43,000  Level Memphis Center
04:03PM 36.5706 -89.0231 334° Northwest 496 571 43,000  Level Memphis Center
04:04PM 36.6917 -89.0978 334° Northwest 493 567 43,000  Level Memphis Center
04:05PM 36.8369 -89.1886 333° Northwest 491 565 43,000  Level Memphis Center
04:06PM 36.9589 -89.2644 334° Northwest 491 565 43,000  Level Memphis Center
04:07PM 37.0814 -89.3406 334° Northwest 492 566 43,000  Level Memphis Center
04:08PM 37.2047 -89.4178 333° Northwest 495 570 43,000  Level Memphis Center
04:09PM 37.3283 -89.4967 333° Northwest 497 572 43,000  Level Memphis Center
04:10PM 37.4519 -89.5742 334° Northwest 497 572 43,000  Level Memphis Center
04:11PM 37.5758 -89.6539 333° Northwest 496 571 43,000  Level Kansas City Center
04:12PM 37.6881 -89.7250 333° Northwest 495 570 43,000  Level Kansas City Center
04:13PM 37.8361 -89.8183 334° Northwest 496 571 43,000  Level Kansas City Center
04:14PM 37.9600 -89.8972 333° Northwest 500 575 43,000  Level Kansas City Center
04:15PM 38.0925 -89.9814 333° Northwest 494 568 43,000  Level Kansas City Center
04:16PM 38.2053 -90.0533 333° Northwest 492 566 43,000  Level Kansas City Center
04:17PM 38.3300 -90.1336 333° Northwest 500 575 43,000  Level Kansas City Center
04:18PM 38.4675 -90.2236 333° Northwest 500 575 43,000  Level Kansas City Center
04:19PM 38.5911 -90.3044 333° Northwest 499 574 43,000  Level Kansas City Center
04:20PM 38.7139 -90.3847 333° Northwest 498 573 43,000  Level Kansas City Center
04:21PM 38.8369 -90.4661 333° Northwest 497 572 43,000  Level Kansas City Center
04:23PM 39.0017 -90.5381 341° North 530 610 43,000  Level Kansas City Center
04:24PM 39.1400 -90.5922 343° North 523 602 43,000  Level Kansas City Center
04:25PM 39.2794 -90.6461 343° North 522 601 43,000  Level Kansas City Center
04:26PM 39.4192 -90.6997 343° North 523 602 43,000 -540 Level Kansas City Center
04:27PM 39.5603 -90.7556 343° North 528 608 41,900 -1,500 Descending Kansas City Center
04:28PM 39.7047 -90.8119 343° North 537 618 40,000 -1,560 Descending Kansas City Center
04:29PM 39.8733 -90.8800 343° North 543 625 38,700 -1,440 Descending Kansas City Center
04:30PM 40.0181 -90.9386 343° North 543 625 37,100 -1,680 Descending Kansas City Center
04:31PM 40.1500 -90.9906 343° North 541 623 35,300 -1,920 Descending Kansas City Center
04:32PM 40.3011 -91.0511 343° North 529 609 33,100 -1,260 Descending Kansas City Center
04:33PM 40.4469 -91.1089 343° North 535 616 32,800 -1,200 Descending Kansas City Center
04:34PM 40.5922 -91.1689 343° North 541 623 30,600 -2,280 Descending Kansas City Center
04:35PM 40.7628 -91.2378 343° North 537 618 28,100 -1,500 Descending Kansas City Center
04:36PM 40.9072 -91.2967 343° North 528 608 27,600 -1,080 Descending Kansas City Center
04:37PM 41.0375 -91.3508 343° North 510 587 25,900 -2,220 Descending Kansas City Center
04:38PM 41.1803 -91.4086 343° North 454 522 22,900 -2,580 Descending Chicago Center
04:39PM 41.2878 -91.4528 343° North 412 474 20,400 -3,000 Descending Chicago Center
04:40PM 41.3883 -91.4969 342° North 378 435 16,700 -3,300 Descending Chicago Center
04:41PM 41.4781 -91.5325 343° North 342 394 13,700 -2,940 Descending Chicago Center
04:42PM 41.5625 -91.5531 350° North 320 368 10,700 -2,520 Descending Chicago Center
04:43PM 41.6303 -91.5208 20° North 272 313 8,500 -2,100 Descending Chicago Center
04:44PM 41.6925 -91.4625 35° Northeast 238 274 6,400 -1,620 Descending Chicago Center
04:46PM 41.7589 -91.5325 343° North 175 201 3,600 -1,080 Descending Chicago Center
04:47PM 41.7861 -91.5769 309° West 162 186 3,100 -540 Descending Chicago Center
04:48PM 41.8178 -91.6183 316° Northwest 160 184 2,500 -600 Descending Chicago Center
04:50PM 41.8481 -91.6564 317° Northwest 157 181 1,900 -600 Descending Chicago Center
04:52PM 41.8833 -91.7000 346° North  Level FlightAware Approximate
04:59PM 41.8847 -91.7108 346° North  Level Estimated